Time;durP1;ratioP1;P1;durP2;ratioP2;P2;SDS_P1;SDS_P2;PMS_P1;PMS_P2;Temp;Humidity;BMP_temperature;BMP_pressure;BME280_temperature;BME280_humidity;BME280_pressure;Samples;Min_cycle;Max_cycle;Signal;HPM_P1;HPM_P2
2022/10/22 00:01:09;;;;;;;7.40;6.43;;;9.40;81.70;;;;;;5032362;28;20728;-71
2022/10/22 00:03:35;;;;;;;14.17;7.70;;;9.50;82.20;;;;;;5030887;28;20199;-71
2022/10/22 00:06:01;;;;;;;9.27;7.03;;;9.50;81.70;;;;;;5027847;28;20195;-72
2022/10/22 00:08:27;;;;;;;11.47;7.47;;;9.40;81.70;;;;;;5034775;28;20253;-71
2022/10/22 00:10:52;;;;;;;9.10;7.23;;;9.40;80.90;;;;;;5035951;28;20191;-71
2022/10/22 00:13:19;;;;;;;10.80;7.57;;;9.40;82.60;;;;;;5035948;28;20211;-72
2022/10/22 00:15:44;;;;;;;12.67;7.10;;;9.40;82.60;;;;;;5033353;28;20207;-72
2022/10/22 00:18:10;;;;;;;11.90;7.43;;;9.40;81.60;;;;;;5032365;28;20207;-71
2022/10/22 00:20:36;;;;;;;14.53;7.13;;;9.40;82.10;;;;;;5031870;28;20199;-72
2022/10/22 00:23:02;;;;;;;12.50;7.27;;;9.40;82.70;;;;;;5023737;28;20229;-72
2022/10/22 00:25:27;;;;;;;11.67;7.23;;;9.30;81.60;;;;;;5037766;28;20746;-71
2022/10/22 00:27:53;;;;;;;9.57;6.97;;;9.20;82.40;;;;;;5036020;28;20298;-71
2022/10/22 00:30:19;;;;;;;10.97;6.60;;;9.20;82.10;;;;;;5036026;28;20237;-71
2022/10/22 00:32:44;;;;;;;9.13;6.53;;;9.10;82.10;;;;;;5034623;28;20258;-72
2022/10/22 00:35:10;;;;;;;12.30;6.87;;;9.20;83.00;;;;;;5038368;28;20267;-71
2022/10/22 00:37:36;;;;;;;12.97;7.73;;;9.20;83.60;;;;;;5031985;28;20183;-72
2022/10/22 00:40:03;;;;;;;8.53;6.93;;;9.10;82.20;;;;;;5036068;28;20195;-71
2022/10/22 00:42:29;;;;;;;9.83;7.00;;;9.10;81.90;;;;;;5038550;28;20191;-72
2022/10/22 00:45:10;;;;;;;12.20;6.87;;;9.10;81.70;;;;;;5033597;28;21439;-72
2022/10/22 00:48:00;;;;;;;8.47;6.73;;;9.10;81.10;;;;;;5039457;28;20215;-72
2022/10/22 00:51:01;;;;;;;6.63;5.93;;;9.10;81.60;;;;;;5034751;28;20199;-71
2022/10/22 00:53:41;;;;;;;9.17;6.30;;;9.20;82.30;;;;;;4944393;28;20211;-71
2022/10/22 00:56:08;;;;;;;7.60;6.33;;;9.20;83.10;;;;;;4945502;28;20675;-71
2022/10/22 00:58:40;;;;;;;11.47;6.23;;;9.10;82.60;;;;;;4925876;29;21114;-72
2022/10/22 01:01:12;;;;;;;10.53;6.63;;;9.10;83.20;;;;;;4941983;29;20191;-72
2022/10/22 01:03:38;;;;;;;5.87;5.30;;;9.10;83.90;;;;;;4941347;29;20747;-71
2022/10/22 01:06:04;;;;;;;7.73;5.40;;;9.10;83.90;;;;;;4941711;28;20191;-72
2022/10/22 01:08:49;;;;;;;6.20;5.57;;;9.00;84.10;;;;;;4945169;28;20226;-71
2022/10/22 01:11:23;;;;;;;9.20;5.53;;;9.00;83.70;;;;;;4944997;28;20191;-71
2022/10/22 01:13:57;;;;;;;9.33;5.43;;;8.90;83.80;;;;;;4941832;28;20600;-72
2022/10/22 01:16:40;;;;;;;6.23;5.40;;;8.90;83.40;;;;;;4944159;29;20230;-72
2022/10/22 01:19:17;;;;;;;6.30;5.50;;;8.90;84.70;;;;;;4944287;28;20190;-71
2022/10/22 01:21:47;;;;;;;9.37;5.90;;;8.80;83.70;;;;;;4938281;29;20848;-72
2022/10/22 01:24:22;;;;;;;7.13;5.13;;;8.80;83.70;;;;;;4943795;29;20704;-71
2022/10/22 01:27:06;;;;;;;7.10;5.13;;;8.80;83.60;;;;;;4943429;29;20641;-72
2022/10/22 01:30:05;;;;;;;4.90;4.23;;;8.70;83.20;;;;;;5005186;28;20191;-71
2022/10/22 01:32:40;;;;;;;5.30;4.80;;;8.70;83.90;;;;;;4949730;28;20290;-71
2022/10/22 01:35:11;;;;;;;6.37;4.80;;;8.70;83.70;;;;;;4953094;28;20608;-71
2022/10/22 01:37:49;;;;;;;7.57;5.13;;;8.70;83.60;;;;;;4950787;28;20616;-72
2022/10/22 01:40:16;;;;;;;5.10;4.67;;;8.70;83.10;;;;;;4945769;28;20210;-72
2022/10/22 01:42:41;;;;;;;6.87;5.70;;;8.60;83.10;;;;;;4949301;28;20183;-71
2022/10/22 01:45:13;;;;;;;5.57;4.63;;;8.70;84.30;;;;;;4946409;28;20197;-71
2022/10/22 01:48:22;;;;;;;5.27;4.83;;;8.70;83.60;;;;;;4952224;28;20242;-73
2022/10/22 01:50:51;;;;;;;5.93;5.37;;;8.60;83.40;;;;;;4906271;29;20196;-71
2022/10/22 01:53:48;;;;;;;8.13;5.07;;;8.60;83.20;;;;;;4906766;29;20304;-71
2022/10/22 01:56:35;;;;;;;5.33;4.60;;;8.60;83.80;;;;;;4906828;29;20199;-72
2022/10/22 01:59:28;;;;;;;7.30;4.67;;;8.60;83.70;;;;;;4905634;29;20199;-71
2022/10/22 02:02:05;;;;;;;5.97;4.93;;;8.60;82.90;;;;;;4906756;29;20204;-70
2022/10/22 02:04:54;;;;;;;5.70;4.43;;;8.60;83.30;;;;;;4905659;29;20640;-72
2022/10/22 02:07:26;;;;;;;7.73;4.40;;;8.60;83.10;;;;;;4906200;29;20673;-70
2022/10/22 02:09:54;;;;;;;4.90;4.50;;;8.60;83.60;;;;;;4957609;28;20252;-72
2022/10/22 02:12:21;;;;;;;11.07;4.80;;;8.60;84.30;;;;;;4983533;28;20706;-72
2022/10/22 02:14:49;;;;;;;7.97;5.30;;;8.60;83.70;;;;;;4981687;28;20198;-70
2022/10/22 02:17:18;;;;;;;5.33;4.87;;;8.60;83.50;;;;;;4983007;28;20208;-72
2022/10/22 02:19:53;;;;;;;5.07;4.63;;;8.60;83.30;;;;;;4983017;28;20190;-70
2022/10/22 02:22:19;;;;;;;11.40;4.27;;;8.60;83.70;;;;;;4983003;28;20678;-72
2022/10/22 02:24:47;;;;;;;5.70;5.13;;;8.60;83.40;;;;;;4982899;28;20683;-72
2022/10/22 02:27:26;;;;;;;5.73;5.07;;;8.60;83.70;;;;;;4994372;28;20228;-71
2022/10/22 02:29:57;;;;;;;7.67;5.47;;;8.60;82.70;;;;;;5030969;28;20188;-71
2022/10/22 02:32:27;;;;;;;8.27;5.40;;;8.50;82.90;;;;;;5034340;28;20179;-71
2022/10/22 02:34:54;;;;;;;9.90;5.87;;;8.50;82.70;;;;;;5033747;28;20665;-71
2022/10/22 02:37:23;;;;;;;12.00;5.50;;;8.50;82.60;;;;;;5034957;28;20210;-72
2022/10/22 02:39:50;;;;;;;6.77;5.57;;;8.50;83.10;;;;;;5030763;28;20176;-73
2022/10/22 02:42:17;;;;;;;9.03;5.53;;;8.50;83.00;;;;;;5039437;28;20658;-69
2022/10/22 02:44:43;;;;;;;7.73;4.90;;;8.60;84.40;;;;;;5031973;28;20175;-71
2022/10/22 02:47:09;;;;;;;7.97;5.47;;;8.50;84.60;;;;;;5033317;28;20721;-70
2022/10/22 02:49:34;;;;;;;5.90;4.90;;;8.50;84.80;;;;;;5029642;28;20222;-70
2022/10/22 02:52:00;;;;;;;7.47;5.37;;;8.50;84.80;;;;;;5035379;28;20184;-71
2022/10/22 02:54:26;;;;;;;6.83;5.50;;;8.50;84.60;;;;;;5027443;28;20787;-71
2022/10/22 02:56:51;;;;;;;8.57;5.53;;;8.40;84.90;;;;;;5036632;28;20254;-71
2022/10/22 02:59:17;;;;;;;6.13;5.53;;;8.40;85.10;;;;;;5033444;28;20176;-70
2022/10/22 03:01:43;;;;;;;6.80;5.33;;;8.40;85.10;;;;;;5034936;28;20629;-71
2022/10/22 03:04:08;;;;;;;15.07;5.30;;;8.40;85.60;;;;;;5035300;28;20180;-71
2022/10/22 03:06:34;;;;;;;8.17;5.33;;;8.40;85.20;;;;;;5030394;28;20275;-70
2022/10/22 03:09:00;;;;;;;6.80;4.93;;;8.30;84.50;;;;;;5027973;28;20176;-71
2022/10/22 03:11:25;;;;;;;7.03;4.73;;;8.30;84.60;;;;;;5033639;28;20218;-70
2022/10/22 03:13:51;;;;;;;6.53;5.10;;;8.30;83.90;;;;;;5031662;28;20179;-70
2022/10/22 03:16:17;;;;;;;6.47;4.80;;;8.30;84.70;;;;;;5030505;28;20192;-71
2022/10/22 03:18:42;;;;;;;8.27;5.40;;;8.30;84.90;;;;;;5028757;28;20433;-71
2022/10/22 03:21:18;;;;;;;6.93;5.23;;;8.30;84.20;;;;;;5035986;28;20188;-70
2022/10/22 03:23:43;;;;;;;7.37;4.67;;;8.30;84.60;;;;;;5030641;28;20187;-71
2022/10/22 03:26:12;;;;;;;7.07;4.90;;;8.30;85.20;;;;;;5064573;28;20191;-70
2022/10/22 03:28:39;;;;;;;6.70;4.63;;;8.30;85.70;;;;;;5031164;28;20373;-69
2022/10/22 03:31:05;;;;;;;4.67;4.07;;;8.30;85.00;;;;;;5033615;28;20184;-71
2022/10/22 03:33:31;;;;;;;7.53;5.13;;;8.20;85.10;;;;;;5033912;28;20814;-71
2022/10/22 03:35:58;;;;;;;9.67;6.13;;;8.20;85.10;;;;;;5035331;28;20199;-71
2022/10/22 03:38:23;;;;;;;8.73;5.23;;;8.20;84.80;;;;;;5061691;28;20199;-72
2022/10/22 03:40:49;;;;;;;5.93;5.20;;;8.20;85.50;;;;;;5030934;28;20180;-71
2022/10/22 03:43:15;;;;;;;6.37;5.00;;;8.20;85.20;;;;;;5032839;28;20668;-71
2022/10/22 03:45:41;;;;;;;7.30;5.80;;;8.20;84.50;;;;;;5030713;28;20191;-71
2022/10/22 03:48:07;;;;;;;5.63;5.13;;;8.20;85.00;;;;;;5033256;28;20727;-71
2022/10/22 03:50:32;;;;;;;5.80;5.20;;;8.10;84.50;;;;;;5031708;28;20916;-71
2022/10/22 03:52:58;;;;;;;5.77;4.90;;;8.10;84.30;;;;;;5029065;28;20345;-71
2022/10/22 03:55:24;;;;;;;6.17;5.57;;;8.10;84.40;;;;;;5032462;28;20180;-71
2022/10/22 03:57:50;;;;;;;6.47;4.90;;;8.10;84.30;;;;;;5033422;28;20684;-72
2022/10/22 04:00:15;;;;;;;5.40;4.90;;;8.10;84.00;;;;;;5029841;28;20184;-71
2022/10/22 04:02:41;;;;;;;5.80;4.90;;;8.10;84.70;;;;;;5037414;28;20176;-71
2022/10/22 04:05:07;;;;;;;5.93;4.83;;;8.20;84.50;;;;;;5031050;28;20755;-71
2022/10/22 04:07:33;;;;;;;8.23;5.50;;;8.20;85.80;;;;;;5032282;28;20220;-71
2022/10/22 04:09:58;;;;;;;5.97;5.13;;;8.20;85.70;;;;;;5037002;28;20179;-71
2022/10/22 04:12:25;;;;;;;8.10;5.50;;;8.20;85.80;;;;;;5031881;28;20184;-71
2022/10/22 04:14:50;;;;;;;5.93;5.37;;;8.10;85.60;;;;;;5026381;28;20180;-71
2022/10/22 04:17:16;;;;;;;8.13;5.80;;;8.10;85.80;;;;;;5029973;28;20212;-71
2022/10/22 04:19:42;;;;;;;5.97;5.37;;;8.00;85.40;;;;;;5029873;28;20237;-71
2022/10/22 04:22:07;;;;;;;7.70;5.70;;;8.00;84.70;;;;;;5029666;28;20249;-71
2022/10/22 04:24:33;;;;;;;7.97;5.03;;;8.00;84.50;;;;;;5034372;28;20586;-71
2022/10/22 04:26:59;;;;;;;8.07;5.70;;;8.00;84.20;;;;;;5032814;28;20671;-71
2022/10/22 04:29:25;;;;;;;5.47;5.03;;;8.00;83.80;;;;;;5025961;28;20661;-72
2022/10/22 04:31:51;;;;;;;9.57;5.50;;;8.10;84.20;;;;;;5038144;28;20229;-71
2022/10/22 04:34:16;;;;;;;7.07;5.67;;;8.10;84.20;;;;;;5032739;28;20215;-71
2022/10/22 04:36:42;;;;;;;9.17;5.70;;;8.10;84.00;;;;;;5030821;28;20234;-71
2022/10/22 04:39:08;;;;;;;6.50;5.70;;;8.20;84.10;;;;;;5029401;28;20203;-71
2022/10/22 04:41:38;;;;;;;9.20;5.93;;;8.20;84.00;;;;;;5036342;28;20176;-71
2022/10/22 04:44:04;;;;;;;8.13;5.83;;;8.20;83.70;;;;;;5031158;28;21649;-72
2022/10/22 04:46:33;;;;;;;7.77;5.93;;;8.30;83.90;;;;;;5029378;28;20211;-72
2022/10/22 04:48:58;;;;;;;7.67;6.70;;;8.30;84.70;;;;;;5030496;28;20176;-71
2022/10/22 04:51:25;;;;;;;8.43;6.73;;;8.40;84.50;;;;;;5035233;28;20198;-72
2022/10/22 04:53:52;;;;;;;8.97;6.50;;;8.40;84.70;;;;;;5032313;28;20184;-71
2022/10/22 04:56:29;;;;;;;10.53;6.63;;;8.40;84.60;;;;;;5034641;28;20183;-71
2022/10/22 04:59:03;;;;;;;9.73;7.10;;;8.50;84.30;;;;;;5032072;28;20619;-71
2022/10/22 05:01:32;;;;;;;10.27;6.50;;;8.50;84.10;;;;;;5029170;28;20215;-72
2022/10/22 05:04:00;;;;;;;10.37;7.67;;;8.50;84.00;;;;;;5035606;28;20305;-71
2022/10/22 05:06:28;;;;;;;10.20;5.90;;;8.50;84.20;;;;;;5063389;28;20188;-71
2022/10/22 05:08:57;;;;;;;9.73;7.30;;;8.50;84.40;;;;;;5028288;28;20214;-71
2022/10/22 05:11:29;;;;;;;9.10;6.43;;;8.50;84.00;;;;;;5036318;28;20185;-72
2022/10/22 05:13:56;;;;;;;10.60;6.57;;;8.60;83.90;;;;;;5034087;28;20291;-71
2022/10/22 05:16:22;;;;;;;8.87;6.70;;;8.60;84.30;;;;;;5039354;28;20192;-71
2022/10/22 05:18:48;;;;;;;10.63;6.23;;;8.60;84.40;;;;;;5032920;28;20184;-71
2022/10/22 05:21:17;;;;;;;9.73;7.03;;;8.70;84.60;;;;;;5036064;28;20229;-71
2022/10/22 05:23:44;;;;;;;9.23;6.80;;;8.70;84.50;;;;;;5034643;28;20234;-72
2022/10/22 05:26:11;;;;;;;13.03;7.80;;;8.70;85.10;;;;;;5036434;28;20187;-71
2022/10/22 05:28:37;;;;;;;10.97;8.60;;;8.80;85.00;;;;;;5032117;28;20219;-72
2022/10/22 05:31:05;;;;;;;12.87;7.33;;;8.80;85.20;;;;;;5035676;28;20736;-70
2022/10/22 05:33:32;;;;;;;11.27;7.60;;;8.80;85.00;;;;;;5034982;28;20172;-71
2022/10/22 05:35:58;;;;;;;14.67;7.83;;;8.70;84.50;;;;;;5037723;28;20218;-72
2022/10/22 05:38:23;;;;;;;11.20;7.47;;;8.70;84.40;;;;;;5035923;28;20184;-71
2022/10/22 05:41:03;;;;;;;15.90;8.07;;;8.70;84.60;;;;;;5032738;28;20246;-71
2022/10/22 05:43:29;;;;;;;9.80;7.70;;;8.70;84.10;;;;;;5030655;28;20298;-72
2022/10/22 05:45:55;;;;;;;12.47;7.63;;;8.60;84.80;;;;;;5030011;28;20200;-71
2022/10/22 05:48:21;;;;;;;11.20;7.07;;;8.70;85.10;;;;;;5029683;28;20225;-70
2022/10/22 05:50:49;;;;;;;11.20;7.87;;;8.70;85.20;;;;;;5033848;28;20183;-71
2022/10/22 05:53:17;;;;;;;10.73;7.23;;;8.70;85.30;;;;;;5034645;28;20570;-71
2022/10/22 05:55:43;;;;;;;14.00;8.73;;;8.70;85.00;;;;;;5034097;28;20568;-71
2022/10/22 05:58:10;;;;;;;9.97;7.73;;;8.70;85.60;;;;;;5034087;28;20188;-71
2022/10/22 06:00:36;;;;;;;14.00;7.70;;;8.70;85.80;;;;;;5034682;28;20202;-70
2022/10/22 06:03:02;;;;;;;12.40;7.50;;;8.80;85.70;;;;;;5033270;28;20184;-71
2022/10/22 06:05:27;;;;;;;15.67;8.07;;;8.80;85.40;;;;;;5032414;28;20188;-71
2022/10/22 06:07:54;;;;;;;8.87;7.90;;;8.90;84.90;;;;;;5032041;28;20211;-71
2022/10/22 06:10:21;;;;;;;10.30;8.10;;;8.90;85.20;;;;;;5032832;28;20184;-71
2022/10/22 06:12:47;;;;;;;14.10;7.90;;;9.00;85.60;;;;;;5034464;28;20199;-71
2022/10/22 06:15:15;;;;;;;9.40;7.67;;;9.10;85.60;;;;;;5033237;28;20187;-71
2022/10/22 06:17:42;;;;;;;9.83;7.80;;;9.10;85.30;;;;;;5037727;28;20686;-70
2022/10/22 06:20:09;;;;;;;13.97;8.43;;;9.20;85.60;;;;;;5030339;28;20262;-69
2022/10/22 06:22:34;;;;;;;12.30;8.33;;;9.30;85.50;;;;;;5034196;28;20666;-70
2022/10/22 06:25:00;;;;;;;15.63;9.13;;;9.50;86.20;;;;;;5033850;28;20326;-70
2022/10/22 06:27:25;;;;;;;14.67;9.37;;;9.60;85.90;;;;;;5027675;28;20211;-70
2022/10/22 06:29:51;;;;;;;12.10;8.97;;;9.70;85.80;;;;;;5038154;28;20280;-70
2022/10/22 06:32:17;;;;;;;12.77;7.97;;;9.80;85.80;;;;;;5032193;28;20191;-70
2022/10/22 06:34:42;;;;;;;17.67;9.20;;;9.90;85.50;;;;;;5038261;28;20195;-68
2022/10/22 06:37:09;;;;;;;13.40;8.93;;;10.00;85.20;;;;;;5035574;28;20188;-70
2022/10/22 06:39:35;;;;;;;13.00;7.87;;;10.10;85.50;;;;;;5030709;28;20180;-69
2022/10/22 06:42:00;;;;;;;13.17;8.70;;;10.20;85.20;;;;;;5035368;28;20680;-69
2022/10/22 06:44:26;;;;;;;15.60;9.77;;;10.30;85.00;;;;;;5035872;28;20189;-71
2022/10/22 06:46:52;;;;;;;19.43;9.97;;;10.40;85.10;;;;;;5036509;28;20227;-70
2022/10/22 06:49:18;;;;;;;15.53;10.43;;;10.60;84.80;;;;;;5035706;28;20235;-70
2022/10/22 06:51:48;;;;;;;19.80;11.63;;;10.70;84.70;;;;;;5028892;28;20188;-71
2022/10/22 06:54:13;;;;;;;19.33;11.27;;;10.80;84.60;;;;;;5032436;28;20618;-70
2022/10/22 06:56:39;;;;;;;16.70;11.20;;;10.90;84.70;;;;;;5033580;28;20179;-70
2022/10/22 06:59:04;;;;;;;17.60;10.95;;;11.10;84.90;;;;;;5034483;28;20206;-70
2022/10/22 07:01:32;;;;;;;15.57;10.43;;;11.50;84.70;;;;;;5033729;28;20190;-70
2022/10/22 07:03:58;;;;;;;19.00;11.27;;;11.90;85.30;;;;;;5033558;28;20188;-71
2022/10/22 07:06:25;;;;;;;17.42;10.05;;;12.50;84.70;;;;;;5035764;28;20249;-70
2022/10/22 07:08:52;;;;;;;15.80;9.90;;;13.10;83.60;;;;;;5037527;28;20365;-70
2022/10/22 07:11:21;;;;;;;17.83;11.88;;;13.70;83.50;;;;;;5032764;28;20246;-71
2022/10/22 07:13:47;;;;;;;13.75;9.77;;;14.40;80.60;;;;;;5031775;28;20233;-70
2022/10/22 07:16:13;;;;;;;21.58;10.68;;;15.00;78.50;;;;;;5033525;28;20185;-71
2022/10/22 07:18:40;;;;;;;17.58;11.27;;;15.60;77.10;;;;;;5035769;28;20191;-71
2022/10/22 07:21:07;;;;;;;18.40;11.65;;;16.20;73.80;;;;;;5032684;28;20195;-71
2022/10/22 07:23:33;;;;;;;18.25;11.10;;;16.50;72.10;;;;;;5031037;28;20177;-70
2022/10/22 07:26:01;;;;;;;19.50;11.48;;;16.90;71.70;;;;;;5030943;28;20188;-71
2022/10/22 07:28:27;;;;;;;19.33;10.93;;;17.30;70.60;;;;;;5032110;28;20216;-71
2022/10/22 07:30:53;;;;;;;20.30;11.85;;;17.80;70.80;;;;;;5029685;28;20556;-71
2022/10/22 07:33:19;;;;;;;20.08;12.10;;;18.30;70.40;;;;;;5032280;28;20190;-71
2022/10/22 07:35:45;;;;;;;14.02;11.52;;;18.80;68.00;;;;;;5030567;28;20181;-71
2022/10/22 07:38:11;;;;;;;15.57;11.23;;;19.30;68.30;;;;;;5028745;28;20184;-69
2022/10/22 07:40:37;;;;;;;16.65;11.35;;;19.80;67.20;;;;;;5033137;28;20249;-71
2022/10/22 07:43:03;;;;;;;18.58;11.43;;;20.30;65.50;;;;;;5034562;28;20322;-71
2022/10/22 07:45:29;;;;;;;13.02;11.52;;;20.70;65.50;;;;;;5030087;28;20630;-71
2022/10/22 07:47:54;;;;;;;15.90;11.23;;;21.20;64.60;;;;;;5033465;28;20354;-71
2022/10/22 07:50:20;;;;;;;17.98;11.90;;;21.50;64.10;;;;;;5024127;28;20192;-73
2022/10/22 07:52:46;;;;;;;16.08;11.70;;;21.70;61.90;;;;;;5025276;28;20199;-70
2022/10/22 07:55:12;;;;;;;17.70;10.98;;;21.90;61.20;;;;;;5026334;28;20195;-70
2022/10/22 07:57:41;;;;;;;14.20;10.35;;;22.00;60.80;;;;;;5065043;28;20199;-73
2022/10/22 08:00:08;;;;;;;14.40;9.93;;;22.20;61.60;;;;;;5032116;28;20776;-71
2022/10/22 08:02:33;;;;;;;12.57;9.98;;;22.50;61.20;;;;;;5029632;28;20191;-71
2022/10/22 08:04:59;;;;;;;13.10;10.05;;;22.90;60.80;;;;;;5029974;28;20187;-71
2022/10/22 08:07:25;;;;;;;13.93;10.43;;;23.30;60.10;;;;;;5032075;28;20219;-70
2022/10/22 08:09:51;;;;;;;12.70;10.52;;;23.70;60.00;;;;;;5029606;28;20203;-71
2022/10/22 08:12:17;;;;;;;16.65;11.52;;;24.20;59.30;;;;;;5031786;28;20261;-74
2022/10/22 08:14:42;;;;;;;13.40;11.55;;;24.80;58.00;;;;;;5031357;28;20231;-74
2022/10/22 08:17:08;;;;;;;14.05;11.02;;;25.30;57.10;;;;;;5030957;28;20180;-73
2022/10/22 08:19:34;;;;;;;15.73;12.45;;;25.60;56.40;;;;;;5032922;28;20642;-71
2022/10/22 08:22:01;;;;;;;16.25;12.52;;;26.00;55.70;;;;;;5032853;28;20190;-73
2022/10/22 08:24:26;;;;;;;15.18;11.63;;;26.50;55.30;;;;;;5028309;28;20218;-71
2022/10/22 08:26:54;;;;;;;17.92;12.13;;;26.90;54.50;;;;;;5030191;28;20187;-71
2022/10/22 08:29:22;;;;;;;13.68;10.80;;;27.30;52.80;;;;;;5066171;28;20673;-71
2022/10/22 08:31:48;;;;;;;13.45;10.75;;;27.60;53.30;;;;;;5029264;28;20207;-70
2022/10/22 08:34:13;;;;;;;13.10;9.95;;;27.90;53.50;;;;;;5030593;28;20218;-71
2022/10/22 08:36:39;;;;;;;11.70;9.90;;;28.20;49.60;;;;;;5030962;28;20208;-71
2022/10/22 08:39:05;;;;;;;10.77;9.65;;;28.30;52.40;;;;;;5029608;28;20210;-72
2022/10/22 08:41:39;;;;;;;11.65;8.85;;;28.60;51.90;;;;;;5027889;28;20638;-72
2022/10/22 08:44:49;;;;;;;9.70;8.57;;;28.80;52.10;;;;;;5031144;28;20779;-72
2022/10/22 08:47:35;;;;;;;9.77;8.77;;;29.00;47.80;;;;;;5031738;28;20221;-72
2022/10/22 08:50:01;;;;;;;9.93;8.93;;;29.20;48.90;;;;;;5024327;28;20192;-72
2022/10/22 08:52:27;;;;;;;12.55;10.40;;;29.30;51.00;;;;;;5030040;28;20208;-72
2022/10/22 08:54:59;;;;;;;12.43;10.35;;;29.50;50.60;;;;;;5033311;28;20211;-72
2022/10/22 08:57:48;;;;;;;11.77;10.27;;;29.60;50.80;;;;;;5030339;28;20193;-72
2022/10/22 09:00:14;;;;;;;13.25;10.32;;;29.90;50.00;;;;;;5042142;28;20210;-71
2022/10/22 09:02:45;;;;;;;9.93;8.77;;;30.00;50.00;;;;;;5032830;28;20176;-73
2022/10/22 09:05:35;;;;;;;10.30;9.13;;;30.30;50.20;;;;;;5026593;28;20192;-74
2022/10/22 09:08:01;;;;;;;10.45;9.45;;;30.60;48.40;;;;;;5027951;28;20823;-73
2022/10/22 09:10:34;;;;;;;11.18;10.05;;;30.80;48.80;;;;;;5034016;28;20188;-71
2022/10/22 09:12:59;;;;;;;10.55;9.55;;;31.10;48.60;;;;;;5032057;28;20215;-72
2022/10/22 09:15:25;;;;;;;13.75;11.43;;;31.20;48.00;;;;;;5035444;28;20247;-72
2022/10/22 09:18:13;;;;;;;13.65;11.85;;;31.30;48.50;;;;;;5032082;28;20670;-72
2022/10/22 09:20:57;;;;;;;12.88;11.00;;;31.30;47.30;;;;;;5039569;28;20188;-72
2022/10/22 09:23:41;;;;;;;11.88;10.65;;;31.30;46.30;;;;;;5038618;28;20195;-71
2022/10/22 09:26:15;;;;;;;14.48;11.23;;;31.20;47.00;;;;;;5034064;28;20184;-72
2022/10/22 09:28:48;;;;;;;13.45;10.95;;;31.10;48.20;;;;;;5032020;28;20226;-72
2022/10/22 09:31:14;;;;;;;15.50;11.02;;;31.20;48.20;;;;;;5034982;28;20187;-72
2022/10/22 09:33:41;;;;;;;13.57;11.52;;;31.30;47.90;;;;;;5032315;28;20176;-71
2022/10/22 09:36:11;;;;;;;14.27;12.73;;;31.30;45.40;;;;;;5029629;28;20179;-71
2022/10/22 09:38:45;;;;;;;18.13;11.77;;;31.20;48.00;;;;;;5035571;28;20176;-72
2022/10/22 09:41:12;;;;;;;15.23;12.15;;;31.30;48.00;;;;;;5033119;28;20729;-72
2022/10/22 09:43:37;;;;;;;19.13;12.27;;;31.30;47.40;;;;;;5033929;28;20259;-74
2022/10/22 09:46:05;;;;;;;14.50;11.85;;;31.40;47.30;;;;;;5039359;28;20333;-74
2022/10/22 09:48:34;;;;;;;14.73;11.93;;;31.50;48.00;;;;;;5031770;28;20238;-74
2022/10/22 09:51:18;;;;;;;13.32;11.43;;;31.70;47.70;;;;;;5034641;28;20242;-74
2022/10/22 09:53:58;;;;;;;16.15;10.70;;;31.90;47.50;;;;;;5032417;28;20755;-74
2022/10/22 09:56:26;;;;;;;14.38;11.25;;;32.10;47.00;;;;;;5034624;28;20698;-74
2022/10/22 09:58:55;;;;;;;13.32;10.32;;;32.40;47.50;;;;;;5035901;28;20187;-74
2022/10/22 10:01:27;;;;;;;11.50;10.35;;;32.70;47.30;;;;;;5032106;28;20199;-74
2022/10/22 10:03:53;;;;;;;12.20;10.98;;;33.00;46.00;;;;;;5029595;28;20612;-72
2022/10/22 10:06:21;;;;;;;13.63;10.70;;;33.20;46.20;;;;;;5033595;28;20235;-73
2022/10/22 10:08:48;;;;;;;11.02;9.93;;;33.40;45.10;;;;;;5035321;28;20215;-71
2022/10/22 10:11:27;;;;;;;15.93;10.73;;;33.50;44.40;;;;;;5030624;28;20184;-73
2022/10/22 10:14:01;;;;;;;17.15;10.48;;;33.60;46.50;;;;;;5029969;28;20187;-72
2022/10/22 10:16:58;;;;;;;11.35;9.90;;;33.50;44.80;;;;;;5026391;28;20382;-72
2022/10/22 10:19:57;;;;;;;10.05;9.25;;;33.30;45.20;;;;;;5033932;28;20202;-72
2022/10/22 10:22:48;;;;;;;11.55;9.60;;;33.40;45.70;;;;;;5034244;28;20208;-71
2022/10/22 10:25:30;;;;;;;10.65;9.68;;;33.50;45.20;;;;;;5033382;28;20187;-73
2022/10/22 10:28:25;;;;;;;11.15;9.02;;;33.60;44.60;;;;;;5033486;28;20215;-71
2022/10/22 10:31:08;;;;;;;11.80;9.63;;;33.70;46.10;;;;;;4975154;28;20195;-72
2022/10/22 10:34:19;;;;;;;9.60;8.63;;;33.70;44.50;;;;;;4973730;28;20190;-71
2022/10/22 10:37:03;;;;;;;9.10;8.20;;;33.60;42.50;;;;;;4971042;28;20201;-72
2022/10/22 10:39:49;;;;;;;9.45;8.55;;;33.60;45.20;;;;;;4969935;28;20312;-71
2022/10/22 10:42:27;;;;;;;12.50;9.02;;;33.70;44.10;;;;;;4973945;28;20204;-72
2022/10/22 10:45:04;;;;;;;12.35;8.30;;;33.50;43.80;;;;;;4970039;28;20316;-71
2022/10/22 10:48:05;;;;;;;15.32;9.90;;;33.30;45.10;;;;;;4970242;28;20346;-72
2022/10/22 10:50:57;;;;;;;10.73;7.93;;;33.30;44.10;;;;;;4970668;28;20773;-71
2022/10/22 10:54:05;;;;;;;8.93;8.18;;;33.20;44.70;;;;;;4890569;29;20201;-71
2022/10/22 10:56:53;;;;;;;8.98;8.18;;;33.00;44.60;;;;;;4868687;29;20687;-71
2022/10/22 10:59:33;;;;;;;9.43;8.52;;;33.00;43.00;;;;;;4868768;29;20276;-72
2022/10/22 11:02:36;;;;;;;9.70;8.57;;;32.80;44.90;;;;;;4867104;29;20208;-72
2022/10/22 11:05:04;;;;;;;9.82;8.27;;;32.70;44.30;;;;;;4868289;29;20276;-71
2022/10/22 11:07:44;;;;;;;9.68;8.23;;;32.80;45.90;;;;;;4888973;29;20222;-72
2022/10/22 11:10:26;;;;;;;9.55;8.50;;;33.00;44.40;;;;;;4923678;29;20195;-71
2022/10/22 11:13:14;;;;;;;9.20;8.50;;;33.20;45.50;;;;;;4923003;29;20322;-72
2022/10/22 11:15:44;;;;;;;11.10;8.25;;;33.40;44.10;;;;;;4923595;29;20206;-71
2022/10/22 11:18:16;;;;;;;9.25;8.43;;;33.50;43.70;;;;;;4924593;29;20223;-71
2022/10/22 11:20:42;;;;;;;9.48;8.57;;;33.40;43.40;;;;;;4923796;29;20230;-71
2022/10/22 11:23:26;;;;;;;13.60;8.43;;;33.20;44.80;;;;;;4922700;29;20956;-71
2022/10/22 11:25:51;;;;;;;9.80;8.00;;;32.90;43.30;;;;;;4924625;29;20188;-72
2022/10/22 11:28:24;;;;;;;8.80;7.95;;;32.90;44.30;;;;;;4924404;29;20598;-72
2022/10/22 11:31:00;;;;;;;9.15;8.23;;;32.80;42.70;;;;;;4948208;28;20206;-71
2022/10/22 11:33:32;;;;;;;11.75;7.93;;;32.60;44.80;;;;;;4991316;28;20277;-71
2022/10/22 11:36:00;;;;;;;8.80;7.90;;;32.30;44.60;;;;;;5034575;28;20708;-71
2022/10/22 11:38:26;;;;;;;11.10;8.68;;;32.40;45.80;;;;;;5029886;28;20689;-71
2022/10/22 11:40:58;;;;;;;9.40;8.35;;;32.40;44.30;;;;;;5034258;28;20245;-72
2022/10/22 11:43:31;;;;;;;8.18;7.38;;;32.20;44.00;;;;;;5029448;28;20192;-72
2022/10/22 11:46:20;;;;;;;13.20;8.68;;;32.20;45.00;;;;;;5034105;28;20297;-72
2022/10/22 11:49:21;;;;;;;14.27;7.05;;;32.00;43.80;;;;;;5030565;28;20223;-71
2022/10/22 11:51:47;;;;;;;8.10;7.40;;;32.00;43.60;;;;;;5029615;28;20262;-71
2022/10/22 11:54:33;;;;;;;7.75;7.05;;;31.80;44.70;;;;;;5037029;28;20267;-72
2022/10/22 11:57:13;;;;;;;7.07;6.57;;;31.80;43.90;;;;;;4953240;28;20287;-71
2022/10/22 11:59:50;;;;;;;8.07;7.45;;;32.00;44.00;;;;;;4954720;28;20190;-71
2022/10/22 12:02:28;;;;;;;8.80;7.47;;;32.10;44.90;;;;;;4955914;28;20301;-71
2022/10/22 12:05:21;;;;;;;8.27;7.47;;;32.40;44.80;;;;;;4951761;28;20182;-71
2022/10/22 12:07:55;;;;;;;8.55;6.75;;;32.50;44.20;;;;;;4953216;28;20676;-71
2022/10/22 12:10:26;;;;;;;7.93;7.25;;;32.60;43.90;;;;;;4937283;28;20654;-71
2022/10/22 12:12:56;;;;;;;7.75;7.05;;;32.60;44.00;;;;;;4948863;28;20530;-71
2022/10/22 12:15:25;;;;;;;8.98;7.63;;;32.70;44.90;;;;;;4952380;28;20202;-72
2022/10/22 12:17:58;;;;;;;8.00;7.28;;;32.60;43.60;;;;;;4947842;28;20186;-71
2022/10/22 12:20:25;;;;;;;7.57;6.72;;;32.60;45.00;;;;;;4949494;28;20729;-71
2022/10/22 12:22:51;;;;;;;7.07;6.47;;;32.70;43.10;;;;;;4955520;28;20186;-72
2022/10/22 12:25:28;;;;;;;8.10;7.20;;;32.60;43.20;;;;;;4956275;28;20190;-71
2022/10/22 12:27:58;;;;;;;7.40;6.88;;;32.50;43.70;;;;;;4955067;28;20214;-72
2022/10/22 12:30:33;;;;;;;7.07;6.57;;;32.40;45.40;;;;;;4956365;28;20737;-73
2022/10/22 12:33:01;;;;;;;7.25;6.75;;;32.40;44.60;;;;;;4953122;28;20241;-71
2022/10/22 12:35:48;;;;;;;7.53;6.82;;;32.30;44.40;;;;;;5033504;28;20187;-71
2022/10/22 12:38:19;;;;;;;6.85;6.22;;;32.20;43.70;;;;;;5035634;28;20698;-71
2022/10/22 12:40:45;;;;;;;6.97;6.47;;;32.10;43.70;;;;;;5037569;28;20179;-71
2022/10/22 12:43:13;;;;;;;8.30;6.65;;;32.10;44.00;;;;;;5035183;28;20180;-71
2022/10/22 12:45:41;;;;;;;7.35;6.75;;;32.00;44.40;;;;;;5032934;28;20984;-71
2022/10/22 12:48:23;;;;;;;7.57;7.07;;;32.00;45.50;;;;;;5031573;28;20806;-72
2022/10/22 12:50:55;;;;;;;9.98;7.03;;;32.00;44.20;;;;;;5036496;28;20178;-71
2022/10/22 12:53:28;;;;;;;6.57;6.18;;;32.00;44.70;;;;;;5038343;28;20640;-72
2022/10/22 12:55:59;;;;;;;6.28;5.88;;;31.90;44.10;;;;;;5038622;28;20186;-71
2022/10/22 12:58:32;;;;;;;6.90;6.20;;;31.80;44.80;;;;;;5037287;28;20190;-72
2022/10/22 13:01:01;;;;;;;7.20;6.00;;;31.70;45.50;;;;;;5037975;28;20306;-72
2022/10/22 13:03:32;;;;;;;9.77;6.22;;;31.70;44.80;;;;;;5037640;28;20183;-72
2022/10/22 13:06:12;;;;;;;6.55;6.07;;;31.60;44.90;;;;;;5030765;28;20308;-72